createdAt,value
2019-01-05T00:01:44.579Z,10.23
2019-01-05T00:04:10.909Z,10.43
2019-01-05T00:06:40.504Z,9.80
2019-01-05T00:09:13.171Z,9.03
2019-01-05T00:11:43.986Z,4.43
2019-01-05T00:14:06.443Z,3.80
2019-01-05T00:16:27.430Z,5.30
2019-01-05T00:19:03.179Z,5.87
2019-01-05T00:21:25.905Z,5.00
2019-01-05T00:23:58.794Z,5.83
2019-01-05T00:26:28.163Z,4.03
2019-01-05T00:28:47.415Z,2.10
2019-01-05T00:31:05.811Z,4.20
2019-01-05T00:33:27.882Z,4.60
2019-01-05T00:36:00.686Z,6.47
2019-01-05T00:38:24.386Z,4.08
2019-01-05T00:40:41.560Z,4.20
2019-01-05T00:43:01.810Z,8.50
2019-01-05T00:45:34.167Z,2.85
2019-01-05T00:47:59.055Z,7.43
2019-01-05T00:50:21.748Z,4.28
2019-01-05T00:52:51.672Z,7.50
2019-01-05T00:55:13.957Z,6.83
2019-01-05T00:57:31.267Z,4.90
2019-01-05T00:59:54.521Z,11.27
2019-01-05T01:02:14.476Z,10.15
2019-01-05T01:04:36.830Z,6.27
2019-01-05T01:06:58.911Z,6.58
2019-01-05T01:09:21.835Z,15.03
2019-01-05T01:11:42.380Z,13.50
2019-01-05T01:14:04.450Z,11.70
2019-01-05T01:16:27.040Z,13.03
2019-01-05T01:18:56.427Z,11.30
2019-01-05T01:21:18.991Z,18.92
2019-01-05T01:23:51.315Z,12.73
2019-01-05T01:26:23.507Z,14.00
2019-01-05T01:28:53.823Z,14.40
2019-01-05T01:31:20.283Z,10.60
2019-01-05T01:33:59.363Z,19.33
2019-01-05T01:36:23.392Z,13.47
2019-01-05T01:38:50.779Z,9.33
2019-01-05T01:41:19.906Z,13.07
2019-01-05T01:43:43.896Z,12.00
2019-01-05T01:46:16.480Z,14.90
2019-01-05T01:48:39.463Z,15.27
2019-01-05T01:51:03.666Z,10.53
2019-01-05T01:53:22.624Z,16.60
2019-01-05T01:55:44.979Z,13.23
2019-01-05T01:58:13.100Z,12.93
2019-01-05T02:00:35.833Z,9.50
2019-01-05T02:02:53.474Z,9.70
2019-01-05T02:05:21.474Z,7.83
2019-01-05T02:07:41.928Z,12.23
2019-01-05T02:10:04.623Z,7.87
2019-01-05T02:12:42.132Z,9.43
2019-01-05T02:15:29.144Z,5.67
2019-01-05T02:18:09.648Z,12.80
2019-01-05T02:20:38.629Z,6.67
2019-01-05T02:23:38.811Z,7.80
2019-01-05T02:26:42.977Z,7.80
2019-01-05T02:29:31.547Z,7.47
2019-01-05T02:32:24.871Z,8.57
2019-01-05T02:35:05.855Z,8.67
2019-01-05T02:37:52.998Z,8.87
2019-01-05T02:40:44.495Z,14.17
2019-01-05T02:43:49.501Z,8.83
2019-01-05T02:46:44.741Z,8.37
2019-01-05T02:49:41.709Z,8.05
2019-01-05T02:53:01.966Z,9.43
2019-01-05T02:55:59.288Z,4.33
2019-01-05T02:59:17.222Z,3.35
2019-01-05T03:02:18.047Z,9.93
2019-01-05T03:05:28.834Z,5.30
2019-01-05T03:08:35.283Z,3.20
2019-01-05T03:11:32.818Z,4.30
2019-01-05T03:14:41.347Z,8.53
2019-01-05T03:17:30.503Z,4.10
2019-01-05T03:20:26.124Z,3.43
2019-01-05T03:23:14.891Z,9.60
2019-01-05T03:26:10.568Z,6.70
2019-01-05T03:29:19.268Z,8.40
2019-01-05T03:32:14.245Z,6.37
2019-01-05T03:35:12.932Z,7.60
2019-01-05T03:38:17.153Z,7.50
2019-01-05T03:41:16.329Z,8.75
2019-01-05T03:44:32.425Z,3.62
2019-01-05T03:47:34.691Z,3.08
2019-01-05T03:50:24.836Z,7.17
2019-01-05T03:53:05.735Z,3.25
2019-01-05T03:56:10.903Z,2.90
2019-01-05T03:59:17.063Z,3.80
2019-01-05T04:02:15.688Z,3.43
2019-01-05T04:05:28.940Z,1.98
2019-01-05T04:09:00.116Z,5.10
2019-01-05T04:11:46.079Z,3.87
2019-01-05T04:15:11.105Z,2.10
2019-01-05T04:18:37.872Z,5.80
2019-01-05T04:22:02.622Z,2.70
2019-01-05T04:25:11.883Z,3.20
2019-01-05T04:28:20.458Z,4.10
2019-01-05T04:31:17.632Z,4.90
2019-01-05T04:34:18.018Z,6.13
2019-01-05T04:37:27.984Z,3.83
2019-01-05T04:40:28.051Z,5.60
2019-01-05T04:43:19.163Z,5.10
2019-01-05T04:46:21.283Z,6.30
2019-01-05T04:49:30.924Z,4.93
2019-01-05T04:52:33.253Z,3.80
2019-01-05T04:55:16.498Z,4.20
2019-01-05T04:58:08.376Z,4.60
2019-01-05T05:01:31.679Z,6.43
2019-01-05T05:04:23.663Z,5.27
2019-01-05T05:07:22.728Z,5.67
2019-01-05T05:10:31.332Z,3.47
2019-01-05T05:13:44.955Z,5.10
2019-01-05T05:16:45.145Z,3.80
2019-01-05T05:19:42.530Z,6.17
2019-01-05T05:22:52.944Z,3.50
2019-01-05T05:25:43.833Z,3.00
2019-01-05T05:28:31.862Z,4.67
2019-01-05T05:31:30.649Z,1.77
2019-01-05T05:34:24.970Z,5.15
2019-01-05T05:37:44.647Z,6.70
2019-01-05T05:41:04.129Z,6.57
2019-01-05T05:44:10.183Z,6.00
2019-01-05T05:46:52.775Z,3.98
2019-01-05T05:50:20.165Z,5.73
2019-01-05T05:53:23.167Z,8.93
2019-01-05T05:56:08.650Z,3.60
2019-01-05T05:59:08.990Z,5.70
2019-01-05T06:01:49.823Z,4.17
2019-01-05T06:05:03.656Z,7.23
2019-01-05T06:08:05.655Z,4.60
2019-01-05T06:11:02.365Z,4.90
2019-01-05T06:14:11.055Z,4.70
2019-01-05T06:16:45.667Z,6.53
2019-01-05T06:19:36.313Z,2.90
2019-01-05T06:22:43.559Z,3.80
2019-01-05T06:25:33.142Z,5.13
2019-01-05T06:28:49.612Z,4.70
2019-01-05T06:31:57.208Z,4.47
2019-01-05T06:35:08.331Z,5.00
2019-01-05T06:37:53.139Z,6.73
2019-01-05T06:41:10.787Z,4.03
2019-01-05T06:44:12.537Z,4.93
2019-01-05T06:47:11.775Z,4.53
2019-01-05T06:50:29.855Z,3.53
2019-01-05T06:53:20.863Z,4.85
2019-01-05T06:56:17.979Z,8.23
2019-01-05T06:59:16.769Z,4.50
2019-01-05T07:02:32.151Z,9.07
2019-01-05T07:05:38.387Z,9.90
2019-01-05T07:08:37.123Z,5.15
2019-01-05T07:11:31.156Z,7.00
2019-01-05T07:14:47.962Z,7.27
2019-01-05T07:17:59.560Z,8.47
2019-01-05T07:20:58.064Z,7.20
2019-01-05T07:23:56.099Z,7.97
2019-01-05T07:26:51.814Z,5.17
2019-01-05T07:29:50.774Z,6.07
2019-01-05T07:32:51.879Z,12.10
2019-01-05T07:35:35.528Z,10.38
2019-01-05T07:38:40.846Z,8.00
2019-01-05T07:41:24.871Z,11.00
2019-01-05T07:44:29.900Z,13.13
2019-01-05T07:47:32.839Z,7.10
2019-01-05T07:50:30.707Z,14.03
2019-01-05T07:53:53.143Z,16.97
2019-01-05T07:56:55.683Z,17.97
2019-01-05T07:59:50.742Z,14.67
2019-01-05T08:03:03.609Z,16.33
2019-01-05T08:06:16.014Z,15.13
2019-01-05T08:09:27.703Z,15.10
2019-01-05T08:12:49.406Z,17.37
2019-01-05T08:15:37.815Z,16.48
2019-01-05T08:18:35.931Z,12.77
2019-01-05T08:21:42.186Z,10.57
2019-01-05T08:25:04.820Z,14.90
2019-01-05T08:28:20.319Z,17.45
2019-01-05T08:31:10.481Z,12.60
2019-01-05T08:34:20.890Z,13.60
2019-01-05T08:37:21.423Z,14.93
2019-01-05T08:40:19.835Z,15.67
2019-01-05T08:43:19.441Z,14.50
2019-01-05T08:46:03.274Z,17.67
2019-01-05T08:48:53.679Z,14.20
2019-01-05T08:51:39.051Z,18.30
2019-01-05T08:54:47.574Z,20.57
2019-01-05T08:57:37.779Z,15.28
2019-01-05T09:00:56.611Z,16.00
2019-01-05T09:04:15.795Z,20.10
2019-01-05T09:07:35.671Z,20.70
2019-01-05T09:10:32.604Z,15.13
2019-01-05T09:13:47.999Z,17.40
2019-01-05T09:16:53.999Z,11.70
2019-01-05T09:19:57.060Z,26.07
2019-01-05T09:22:44.782Z,13.90
2019-01-05T09:25:55.839Z,21.17
2019-01-05T09:29:06.072Z,21.20
2019-01-05T09:32:15.554Z,20.27
2019-01-05T09:35:20.855Z,17.63
2019-01-05T09:38:41.280Z,15.03
2019-01-05T09:41:34.155Z,17.95
2019-01-05T09:44:45.387Z,15.23
2019-01-05T09:47:39.874Z,18.40
2019-01-05T09:51:04.171Z,13.27
2019-01-05T09:54:06.277Z,16.60
2019-01-05T09:57:15.030Z,13.40
2019-01-05T10:00:25.822Z,17.73
2019-01-05T10:03:23.092Z,15.63
2019-01-05T10:06:41.281Z,25.30
2019-01-05T10:09:55.899Z,18.33
2019-01-05T10:12:55.079Z,14.60
2019-01-05T10:16:00.931Z,20.80
2019-01-05T10:19:17.252Z,20.10
2019-01-05T10:22:09.187Z,16.52
2019-01-05T10:25:24.139Z,24.20
2019-01-05T10:28:35.899Z,19.33
2019-01-05T10:31:55.369Z,19.42
2019-01-05T10:35:12.501Z,18.70
2019-01-05T10:38:39.138Z,18.02
2019-01-05T10:42:07.743Z,16.13
2019-01-05T10:45:24.474Z,21.75
2019-01-05T10:48:22.852Z,17.60
2019-01-05T10:51:23.934Z,14.80
2019-01-05T10:54:23.794Z,20.73
2019-01-05T10:57:32.801Z,20.07
2019-01-05T11:00:45.288Z,21.95
2019-01-05T11:03:35.947Z,16.77
2019-01-05T11:06:34.529Z,14.40
2019-01-05T11:09:35.570Z,18.10
2019-01-05T11:12:30.998Z,20.33
2019-01-05T11:15:54.186Z,16.27
2019-01-05T11:18:45.490Z,19.77
2019-01-05T11:21:48.274Z,12.93
2019-01-05T11:24:28.640Z,22.20
2019-01-05T11:27:47.961Z,21.23
2019-01-05T11:31:01.204Z,18.77
2019-01-05T11:34:01.979Z,18.97
2019-01-05T11:37:03.707Z,26.83
2019-01-05T11:40:12.444Z,21.45
2019-01-05T11:43:18.812Z,22.50
2019-01-05T11:46:57.167Z,18.23
2019-01-05T11:49:56.815Z,21.00
2019-01-05T11:52:54.547Z,18.10
2019-01-05T11:56:08.728Z,14.60
2019-01-05T11:59:14.206Z,18.20
2019-01-05T12:02:00.484Z,20.90
2019-01-05T12:04:57.532Z,21.13
2019-01-05T12:08:09.024Z,9.40
2019-01-05T12:11:09.175Z,23.37
2019-01-05T12:14:36.312Z,18.60
2019-01-05T12:17:51.683Z,24.80
2019-01-05T12:20:55.487Z,21.13
2019-01-05T12:23:58.633Z,16.27
2019-01-05T12:27:13.355Z,20.50
2019-01-05T12:30:21.279Z,9.73
2019-01-05T12:33:27.042Z,21.77
2019-01-05T12:36:31.247Z,20.10
2019-01-05T12:39:13.258Z,17.60
2019-01-05T12:42:20.717Z,20.88
2019-01-05T12:45:19.431Z,15.53
2019-01-05T12:48:38.829Z,18.07
2019-01-05T12:51:47.290Z,15.70
2019-01-05T12:54:51.140Z,19.80
2019-01-05T12:57:50.054Z,21.50
2019-01-05T13:00:57.414Z,20.30
2019-01-05T13:04:01.907Z,20.12
2019-01-05T13:07:18.408Z,20.67
2019-01-05T13:10:33.857Z,21.60
2019-01-05T13:13:47.634Z,19.00
2019-01-05T13:16:55.711Z,26.90
2019-01-05T13:20:16.742Z,26.50
2019-01-05T13:23:18.011Z,21.70
2019-01-05T13:26:21.300Z,21.60
2019-01-05T13:29:33.444Z,21.07
2019-01-05T13:33:10.605Z,22.97
2019-01-05T13:36:25.755Z,14.87
2019-01-05T13:39:28.565Z,19.42
2019-01-05T13:42:23.519Z,16.40
2019-01-05T13:45:34.227Z,22.60
2019-01-05T13:48:37.475Z,16.23
2019-01-05T13:51:54.376Z,28.77
2019-01-05T13:54:09.459Z,28.23
2019-01-05T13:56:39.869Z,18.40
2019-01-05T13:59:03.152Z,26.50
2019-01-05T14:01:24.798Z,24.18
2019-01-05T14:03:46.432Z,24.80
2019-01-05T14:06:27.723Z,26.03
2019-01-05T14:08:51.187Z,20.50
2019-01-05T14:11:17.324Z,25.07
2019-01-05T14:13:40.848Z,22.67
2019-01-05T14:16:16.859Z,25.32
2019-01-05T14:18:58.943Z,21.68
2019-01-05T14:21:21.019Z,21.70
2019-01-05T14:23:43.199Z,20.70
2019-01-05T14:26:21.437Z,25.27
2019-01-05T14:28:43.712Z,23.20
2019-01-05T14:31:05.984Z,26.45
2019-01-05T14:33:27.699Z,22.10
2019-01-05T14:35:56.703Z,18.17
2019-01-05T14:38:19.315Z,17.83
2019-01-05T14:40:50.391Z,22.23
2019-01-05T14:43:12.147Z,23.50
2019-01-05T14:45:39.272Z,24.63
2019-01-05T14:48:02.559Z,26.90
2019-01-05T14:50:32.425Z,23.67
2019-01-05T14:52:54.694Z,23.17
2019-01-05T14:55:19.147Z,25.10
2019-01-05T14:57:41.538Z,24.45
2019-01-05T15:00:23.756Z,26.00
2019-01-05T15:02:43.783Z,20.77
2019-01-05T15:05:06.975Z,14.50
2019-01-05T15:07:48.487Z,23.75
2019-01-05T15:10:25.591Z,29.93
2019-01-05T15:12:40.036Z,23.60
2019-01-05T15:14:55.921Z,21.67
2019-01-05T15:17:19.215Z,21.33
2019-01-05T15:19:42.716Z,19.57
2019-01-05T15:22:10.127Z,23.57
2019-01-05T15:24:31.764Z,27.37
2019-01-05T15:26:53.442Z,30.37
2019-01-05T15:29:15.326Z,19.10
2019-01-05T15:31:36.843Z,18.23
2019-01-05T15:33:54.207Z,23.50
2019-01-05T15:36:29.471Z,27.57
2019-01-05T15:39:02.314Z,21.62
2019-01-05T15:41:23.975Z,20.57
2019-01-05T15:43:46.012Z,29.13
2019-01-05T15:46:08.040Z,25.08
2019-01-05T15:48:30.407Z,20.05
2019-01-05T15:50:52.567Z,23.60
2019-01-05T15:53:34.013Z,22.30
2019-01-05T15:55:57.992Z,22.50
2019-01-05T15:58:20.135Z,22.30
2019-01-05T16:00:42.571Z,24.83
2019-01-05T16:03:04.391Z,26.20
2019-01-05T16:05:27.547Z,31.50
2019-01-05T16:07:49.651Z,31.00
2019-01-05T16:10:23.785Z,18.00
2019-01-05T16:12:47.320Z,24.80
2019-01-05T16:15:22.494Z,24.77
2019-01-05T16:18:00.589Z,24.17
2019-01-05T16:20:23.382Z,25.17
2019-01-05T16:22:56.016Z,25.70
2019-01-05T16:25:28.145Z,26.00
2019-01-05T16:27:49.785Z,23.63
2019-01-05T16:30:07.303Z,20.77
2019-01-05T16:32:36.568Z,21.40
2019-01-05T16:34:58.553Z,24.60
2019-01-05T16:37:16.842Z,30.53
2019-01-05T16:39:39.007Z,31.12
2019-01-05T16:42:02.451Z,20.50
2019-01-05T16:44:43.900Z,23.27
2019-01-05T16:47:02.690Z,22.47
2019-01-05T16:49:28.479Z,21.60
2019-01-05T16:51:55.006Z,33.78
2019-01-05T16:54:10.820Z,25.07
2019-01-05T16:56:32.427Z,28.55
2019-01-05T16:58:54.983Z,21.63
2019-01-05T17:01:22.594Z,26.23
2019-01-05T17:03:37.475Z,27.50
2019-01-05T17:06:03.691Z,28.10
2019-01-05T17:08:25.794Z,26.67
2019-01-05T17:10:42.239Z,27.63
2019-01-05T17:13:04.447Z,28.67
2019-01-05T17:15:31.813Z,22.90
2019-01-05T17:17:47.584Z,25.67
2019-01-05T17:20:16.424Z,31.30
2019-01-05T17:22:52.094Z,21.30
2019-01-05T17:25:14.875Z,23.73
2019-01-05T17:27:46.781Z,28.90
2019-01-05T17:30:22.074Z,23.77
2019-01-05T17:32:45.319Z,22.27
2019-01-05T17:35:17.446Z,26.33
2019-01-05T17:37:55.731Z,30.00
2019-01-05T17:40:14.963Z,29.87
2019-01-05T17:42:35.706Z,24.10
2019-01-05T17:44:54.924Z,26.15
2019-01-05T17:47:10.915Z,22.67
2019-01-05T17:49:46.213Z,23.57
2019-01-05T17:52:08.407Z,23.07
2019-01-05T17:54:31.604Z,25.13
2019-01-05T17:56:54.716Z,21.17
2019-01-05T17:59:26.909Z,19.27
2019-01-05T18:01:49.077Z,28.40
2019-01-05T18:04:15.014Z,23.47
2019-01-05T18:06:35.553Z,27.00
2019-01-05T18:09:07.334Z,21.13
2019-01-05T18:11:30.688Z,25.33
2019-01-05T18:13:47.199Z,22.33
2019-01-05T18:16:16.245Z,24.20
2019-01-05T18:18:38.109Z,27.90
2019-01-05T18:21:05.096Z,24.73
2019-01-05T18:23:33.799Z,34.33
2019-01-05T18:26:15.553Z,24.95
2019-01-05T18:28:37.648Z,32.87
2019-01-05T18:31:00.514Z,28.00
2019-01-05T18:33:29.495Z,23.87
2019-01-05T18:35:52.145Z,30.80
2019-01-05T18:38:21.766Z,25.13
2019-01-05T18:40:41.039Z,27.93
2019-01-05T18:43:03.605Z,28.67
2019-01-05T18:45:25.523Z,27.95
2019-01-05T18:47:43.575Z,19.70
2019-01-05T18:50:10.412Z,28.83
2019-01-05T18:52:39.590Z,29.60
2019-01-05T18:55:01.979Z,28.80
2019-01-05T18:57:28.068Z,32.90
2019-01-05T19:00:07.190Z,36.03
2019-01-05T19:02:28.995Z,31.93
2019-01-05T19:05:07.339Z,37.30
2019-01-05T19:07:43.716Z,31.50
2019-01-05T19:10:10.492Z,30.37
2019-01-05T19:12:40.806Z,38.27
2019-01-05T19:15:10.570Z,28.70
2019-01-05T19:17:32.139Z,29.43
2019-01-05T19:20:04.743Z,31.67
2019-01-05T19:22:26.711Z,26.52
2019-01-05T19:24:49.185Z,26.35
2019-01-05T19:27:08.403Z,28.10
2019-01-05T19:29:30.580Z,26.20
2019-01-05T19:31:47.510Z,28.80
2019-01-05T19:34:16.860Z,34.80
2019-01-05T19:36:39.508Z,24.67
2019-01-05T19:39:00.471Z,34.05
2019-01-05T19:41:22.754Z,31.00
2019-01-05T19:43:46.451Z,27.73
2019-01-05T19:46:15.824Z,32.80
2019-01-05T19:48:40.106Z,34.47
2019-01-05T19:51:01.899Z,38.53
2019-01-05T19:53:43.783Z,37.55
2019-01-05T19:56:06.784Z,37.10
2019-01-05T19:58:44.218Z,43.37
2019-01-05T20:01:05.912Z,34.55
2019-01-05T20:03:41.237Z,40.83
2019-01-05T20:06:06.951Z,34.90
2019-01-05T20:08:29.024Z,44.77
2019-01-05T20:10:56.696Z,38.30
2019-01-05T20:13:18.855Z,45.88
2019-01-05T20:15:51.211Z,40.73
2019-01-05T20:18:12.627Z,38.70
2019-01-05T20:20:36.833Z,38.20
2019-01-05T20:23:12.098Z,49.60
2019-01-05T20:25:50.082Z,43.33
2019-01-05T20:28:12.759Z,44.03
2019-01-05T20:30:48.195Z,40.63
2019-01-05T20:33:30.059Z,40.47
2019-01-05T20:36:09.227Z,43.50
2019-01-05T20:38:31.735Z,47.63
2019-01-05T20:41:04.462Z,45.70
2019-01-05T20:43:27.523Z,47.43
2019-01-05T20:45:54.244Z,46.50
2019-01-05T20:48:09.220Z,38.13
2019-01-05T20:50:30.797Z,50.30
2019-01-05T20:53:02.908Z,54.30
2019-01-05T20:55:35.161Z,44.23
2019-01-05T20:57:52.907Z,43.63
2019-01-05T21:00:16.655Z,46.75
2019-01-05T21:02:58.564Z,54.57
2019-01-05T21:05:31.628Z,40.20
2019-01-05T21:07:53.732Z,45.17
2019-01-05T21:10:15.880Z,43.33
2019-01-05T21:12:51.243Z,39.80
2019-01-05T21:15:13.502Z,46.50
2019-01-05T21:17:35.457Z,46.60
2019-01-05T21:20:04.679Z,36.13
2019-01-05T21:22:40.440Z,47.53
2019-01-05T21:25:01.187Z,39.30
2019-01-05T21:27:25.954Z,45.60
2019-01-05T21:29:48.603Z,48.77
2019-01-05T21:32:16.954Z,51.60
2019-01-05T21:34:52.367Z,48.77
2019-01-05T21:37:16.008Z,49.67
2019-01-05T21:39:37.906Z,43.10
2019-01-05T21:41:59.882Z,49.20
2019-01-05T21:44:23.523Z,40.78
2019-01-05T21:46:49.673Z,45.33
2019-01-05T21:49:11.970Z,45.07
2019-01-05T21:51:34.548Z,45.73
2019-01-05T21:53:57.290Z,43.90
2019-01-05T21:56:27.283Z,38.10
2019-01-05T22:03:38.257Z,54.03
2019-01-05T22:08:59.712Z,57.47
2019-01-05T22:11:35.207Z,54.83
2019-01-05T22:14:10.252Z,45.00
2019-01-05T22:16:45.597Z,43.80
2019-01-05T22:19:20.940Z,52.37
2019-01-05T22:21:56.492Z,46.33
2019-01-05T22:24:31.802Z,44.53
2019-01-05T22:27:07.404Z,51.28
2019-01-05T22:29:43.078Z,50.13
2019-01-05T22:32:18.185Z,50.90
2019-01-05T22:34:53.617Z,45.98
2019-01-05T22:37:29.072Z,51.20
2019-01-05T22:42:18.337Z,57.93
2019-01-05T22:44:53.131Z,47.67
2019-01-05T22:47:28.436Z,57.53
2019-01-05T22:50:03.319Z,48.87
2019-01-05T22:52:34.785Z,47.93
2019-01-05T22:55:09.625Z,49.10
2019-01-05T22:57:45.605Z,48.00
2019-01-05T23:00:21.072Z,48.83
2019-01-05T23:02:55.794Z,40.20
2019-01-05T23:08:01.872Z,39.23
2019-01-05T23:10:36.224Z,35.83
2019-01-05T23:13:11.759Z,28.93
2019-01-05T23:15:47.105Z,26.50
2019-01-05T23:18:22.586Z,22.27
2019-01-05T23:20:57.686Z,23.10
2019-01-05T23:23:33.137Z,19.70
2019-01-05T23:26:07.006Z,22.87
2019-01-05T23:28:42.334Z,18.90
2019-01-05T23:31:17.851Z,18.73
2019-01-05T23:33:58.823Z,18.07
2019-01-05T23:36:34.114Z,17.20
2019-01-05T23:39:08.925Z,22.27
2019-01-05T23:44:01.886Z,19.33
2019-01-05T23:46:37.262Z,17.07
2019-01-05T23:49:09.805Z,18.63
2019-01-05T23:51:44.869Z,18.12
2019-01-05T23:54:19.695Z,15.85
2019-01-05T23:56:54.856Z,17.77
2019-01-05T23:59:27.351Z,17.97
